createdAt,value
2024-01-11T00:01:14.601Z,100.00
2024-01-11T00:03:44.004Z,100.00
2024-01-11T00:06:14.126Z,100.00
2024-01-11T00:08:43.572Z,100.00
2024-01-11T00:11:15.238Z,100.00
2024-01-11T00:13:47.679Z,100.00
2024-01-11T00:16:17.235Z,100.00
2024-01-11T00:18:46.678Z,100.00
2024-01-11T00:21:16.349Z,100.00
2024-01-11T00:23:45.649Z,100.00
2024-01-11T00:26:15.313Z,100.00
2024-01-11T00:28:44.546Z,100.00
2024-01-11T00:31:16.000Z,100.00
2024-01-11T00:33:45.431Z,98.79
2024-01-11T00:36:21.012Z,98.59
2024-01-11T00:38:50.245Z,97.98
2024-01-11T00:41:20.043Z,97.43
2024-01-11T00:43:49.782Z,100.00
2024-01-11T00:46:20.725Z,100.00
2024-01-11T00:48:53.131Z,100.00
2024-01-11T00:51:24.250Z,99.65
2024-01-11T00:53:54.633Z,97.11
2024-01-11T00:56:24.265Z,94.68
2024-01-11T00:58:53.976Z,95.66
2024-01-11T01:01:24.899Z,97.85
2024-01-11T01:03:54.656Z,97.58
2024-01-11T01:06:24.342Z,97.29
2024-01-11T01:08:53.571Z,98.68
2024-01-11T01:11:23.461Z,99.23
2024-01-11T01:13:53.176Z,99.15
2024-01-11T01:16:22.258Z,99.14
2024-01-11T01:18:53.516Z,99.64
2024-01-11T01:21:22.820Z,99.96
2024-01-11T01:23:52.186Z,99.12
2024-01-11T01:26:21.840Z,99.19
2024-01-11T01:28:51.318Z,100.00
2024-01-11T01:31:20.630Z,100.00
2024-01-11T01:33:50.531Z,99.33
2024-01-11T01:36:24.040Z,99.12
2024-01-11T01:38:53.405Z,98.44
2024-01-11T01:41:23.084Z,98.09
2024-01-11T01:43:52.702Z,98.88
2024-01-11T01:46:25.938Z,100.00
2024-01-11T01:48:57.814Z,100.00
2024-01-11T01:51:31.603Z,100.00
2024-01-11T01:54:02.432Z,100.00
2024-01-11T01:56:32.850Z,100.00
2024-01-11T01:59:04.859Z,100.00
2024-01-11T02:01:35.337Z,100.00
2024-01-11T02:04:05.496Z,100.00
2024-01-11T02:06:37.876Z,100.00
2024-01-11T02:09:09.578Z,100.00
2024-01-11T02:11:40.544Z,100.00
2024-01-11T02:14:10.282Z,100.00
2024-01-11T02:16:39.625Z,100.00
2024-01-11T02:19:15.684Z,100.00
2024-01-11T02:21:48.854Z,100.00
2024-01-11T02:24:20.049Z,100.00
2024-01-11T02:27:02.100Z,100.00
2024-01-11T02:29:32.313Z,100.00
2024-01-11T02:32:04.182Z,100.00
2024-01-11T02:34:33.716Z,100.00
2024-01-11T02:37:03.095Z,100.00
2024-01-11T02:39:34.091Z,100.00
2024-01-11T02:42:03.902Z,100.00
2024-01-11T02:44:33.449Z,100.00
2024-01-11T02:47:03.216Z,100.00
2024-01-11T02:49:32.618Z,100.00
2024-01-11T02:52:02.298Z,100.00
2024-01-11T02:54:31.640Z,100.00
2024-01-11T02:57:02.674Z,100.00
2024-01-11T02:59:32.589Z,100.00
2024-01-11T03:02:02.006Z,100.00
2024-01-11T03:04:31.424Z,100.00
2024-01-11T03:07:01.326Z,100.00
2024-01-11T03:09:30.725Z,99.19
2024-01-11T03:12:02.002Z,97.11
2024-01-11T03:14:31.361Z,98.25
2024-01-11T03:17:00.747Z,98.62
2024-01-11T03:19:30.288Z,98.47
2024-01-11T03:21:59.779Z,98.78
2024-01-11T03:24:37.729Z,99.19
2024-01-11T03:27:09.553Z,99.67
2024-01-11T03:29:38.843Z,100.00
2024-01-11T03:32:08.473Z,100.00
2024-01-11T03:34:38.105Z,100.00
2024-01-11T03:37:07.680Z,100.00
2024-01-11T03:39:37.434Z,100.00
2024-01-11T03:42:09.406Z,100.00
2024-01-11T03:44:39.267Z,100.00
2024-01-11T03:47:09.359Z,100.00
2024-01-11T03:49:39.116Z,100.00
2024-01-11T03:52:09.088Z,100.00
2024-01-11T03:54:38.664Z,100.00
2024-01-11T03:57:10.163Z,100.00
2024-01-11T03:59:39.607Z,100.00
2024-01-11T04:02:09.177Z,99.13
2024-01-11T04:04:38.649Z,97.17
2024-01-11T04:07:07.965Z,95.74
2024-01-11T04:09:39.979Z,95.12
2024-01-11T04:12:11.701Z,98.12
2024-01-11T04:14:41.907Z,100.00
2024-01-11T04:17:11.331Z,100.00
2024-01-11T04:19:42.443Z,99.62
2024-01-11T04:22:11.655Z,99.02
2024-01-11T04:24:40.814Z,100.00
2024-01-11T04:27:11.566Z,100.00
2024-01-11T04:29:41.042Z,100.00
2024-01-11T04:32:10.606Z,100.00
2024-01-11T04:34:40.667Z,100.00
2024-01-11T04:37:10.069Z,100.00
2024-01-11T04:39:39.384Z,100.00
2024-01-11T04:42:08.662Z,100.00
2024-01-11T04:44:39.936Z,100.00
2024-01-11T04:47:09.794Z,100.00
2024-01-11T04:49:39.300Z,100.00
2024-01-11T04:52:11.753Z,100.00
2024-01-11T04:54:41.295Z,100.00
2024-01-11T04:57:10.476Z,97.98
2024-01-11T04:59:42.299Z,98.53
2024-01-11T05:02:12.320Z,99.08
2024-01-11T05:04:42.130Z,99.31
2024-01-11T05:07:11.386Z,100.00
2024-01-11T05:09:41.597Z,99.80
2024-01-11T05:12:11.472Z,100.00
2024-01-11T05:14:42.540Z,99.83
2024-01-11T05:17:11.966Z,98.27
2024-01-11T05:19:41.321Z,96.79
2024-01-11T05:22:10.934Z,97.11
2024-01-11T05:24:40.432Z,99.89
2024-01-11T05:27:10.301Z,100.00
2024-01-11T05:29:39.678Z,99.34
2024-01-11T05:32:10.803Z,100.00
2024-01-11T05:34:40.488Z,100.00
2024-01-11T05:37:09.922Z,98.81
2024-01-11T05:39:39.258Z,98.88
2024-01-11T05:42:09.054Z,100.00
2024-01-11T05:44:38.673Z,100.00
2024-01-11T05:47:09.726Z,100.00
2024-01-11T05:49:38.983Z,100.00
2024-01-11T05:52:08.416Z,100.00
2024-01-11T05:54:38.277Z,99.46
2024-01-11T05:57:08.805Z,100.00
2024-01-11T05:59:38.357Z,99.18
2024-01-11T06:02:08.145Z,98.76
2024-01-11T06:04:38.908Z,100.00
2024-01-11T06:07:08.687Z,100.00
2024-01-11T06:09:38.456Z,98.44
2024-01-11T06:12:08.742Z,96.06
2024-01-11T06:14:38.284Z,95.00
2024-01-11T06:17:07.563Z,94.12
2024-01-11T06:19:36.995Z,90.54
2024-01-11T06:22:09.383Z,90.27
2024-01-11T06:24:38.722Z,90.44
2024-01-11T06:27:07.800Z,91.91
2024-01-11T06:29:37.110Z,91.46
2024-01-11T06:32:07.022Z,92.18
2024-01-11T06:34:38.085Z,91.19
2024-01-11T06:37:09.216Z,89.43
2024-01-11T06:39:38.413Z,88.99
2024-01-11T06:42:07.754Z,90.17
2024-01-11T06:44:36.887Z,90.75
2024-01-11T06:47:07.287Z,90.07
2024-01-11T06:49:37.115Z,88.35
2024-01-11T06:52:06.943Z,86.86
2024-01-11T06:54:39.086Z,94.56
2024-01-11T06:57:08.189Z,100.00
2024-01-11T06:59:37.653Z,100.00
2024-01-11T07:02:07.212Z,100.00
2024-01-11T07:04:36.728Z,100.00
2024-01-11T07:07:06.955Z,100.00
2024-01-11T07:09:38.547Z,100.00
2024-01-11T07:12:09.151Z,100.00
2024-01-11T07:14:38.822Z,100.00
2024-01-11T07:17:08.257Z,100.00
2024-01-11T07:19:38.493Z,99.32
2024-01-11T07:22:07.846Z,96.60
2024-01-11T07:24:39.876Z,95.90
2024-01-11T07:27:09.606Z,89.74
2024-01-11T07:29:38.900Z,84.01
2024-01-11T07:32:08.959Z,90.19
2024-01-11T07:34:39.432Z,84.62
2024-01-11T07:37:09.119Z,80.03
2024-01-11T07:39:40.049Z,77.28
2024-01-11T07:42:09.570Z,78.89
2024-01-11T07:44:38.905Z,81.68
2024-01-11T07:47:08.648Z,81.06
2024-01-11T07:49:38.539Z,76.90
2024-01-11T07:52:08.008Z,82.23
2024-01-11T07:54:37.224Z,91.98
2024-01-11T07:57:08.468Z,100.00
2024-01-11T07:59:38.720Z,100.00
2024-01-11T08:02:08.939Z,100.00
2024-01-11T08:04:40.370Z,100.00
2024-01-11T08:07:09.766Z,85.63
2024-01-11T08:09:46.538Z,85.86
2024-01-11T08:12:18.540Z,83.63
2024-01-11T08:14:49.408Z,83.28
2024-01-11T08:17:18.789Z,80.50
2024-01-11T08:19:48.089Z,79.25
2024-01-11T08:22:19.244Z,73.92
2024-01-11T08:24:48.946Z,69.38
2024-01-11T08:27:19.931Z,67.59
2024-01-11T08:29:49.604Z,65.61
2024-01-11T08:32:28.423Z,63.42
2024-01-11T08:35:01.369Z,60.20
2024-01-11T08:37:30.864Z,57.93
2024-01-11T08:40:00.233Z,55.25
2024-01-11T08:42:31.689Z,53.73
2024-01-11T08:45:05.326Z,52.02
2024-01-11T08:47:35.260Z,50.81
2024-01-11T08:50:07.585Z,51.33
2024-01-11T08:52:37.269Z,49.66
2024-01-11T08:55:07.210Z,48.98
2024-01-11T08:57:38.410Z,47.33
2024-01-11T09:00:08.900Z,48.89
2024-01-11T09:02:38.368Z,52.54
2024-01-11T09:05:09.456Z,51.63
2024-01-11T09:07:39.672Z,49.36
2024-01-11T09:10:12.779Z,47.95
2024-01-11T09:12:43.977Z,51.59
2024-01-11T09:15:13.950Z,52.98
2024-01-11T09:17:43.286Z,55.91
2024-01-11T09:20:15.821Z,60.14
2024-01-11T09:22:45.234Z,55.92
2024-01-11T09:25:14.488Z,52.29
2024-01-11T09:27:45.849Z,49.17
2024-01-11T09:30:15.567Z,52.71
2024-01-11T09:32:45.183Z,58.11
2024-01-11T09:35:16.507Z,56.37
2024-01-11T09:37:47.981Z,58.88
2024-01-11T09:40:18.469Z,56.97
2024-01-11T09:42:50.521Z,54.18
2024-01-11T09:45:20.668Z,57.15
2024-01-11T09:47:52.627Z,54.83
2024-01-11T09:50:23.605Z,53.29
2024-01-11T09:52:53.601Z,55.18
2024-01-11T09:55:22.736Z,56.76
2024-01-11T09:57:59.005Z,53.57
2024-01-11T10:00:29.458Z,53.95
2024-01-11T10:02:59.099Z,56.49
2024-01-11T10:05:29.940Z,56.12
2024-01-11T10:07:59.282Z,53.38
2024-01-11T10:10:29.707Z,54.61
2024-01-11T10:13:00.822Z,54.58
2024-01-11T10:15:30.887Z,50.06
2024-01-11T10:18:01.135Z,50.63
2024-01-11T10:20:31.747Z,47.86
2024-01-11T10:23:02.636Z,47.27
2024-01-11T10:25:32.400Z,46.21
2024-01-11T10:28:03.395Z,48.47
2024-01-11T10:30:34.363Z,48.63
2024-01-11T10:33:04.028Z,50.44
2024-01-11T10:35:33.316Z,52.16
2024-01-11T10:38:05.897Z,49.34
2024-01-11T10:40:35.793Z,49.96
2024-01-11T10:43:12.777Z,48.41
2024-01-11T10:45:42.644Z,50.41
2024-01-11T10:48:16.781Z,49.65
2024-01-11T10:50:47.650Z,50.25
2024-01-11T10:53:30.856Z,49.68
2024-01-11T10:56:02.221Z,46.03
2024-01-11T10:58:35.796Z,45.09
2024-01-11T11:01:07.066Z,44.27
2024-01-11T11:03:38.508Z,45.51
2024-01-11T11:06:09.066Z,44.87
2024-01-11T11:08:39.706Z,42.72
2024-01-11T11:11:10.088Z,42.55
2024-01-11T11:13:43.022Z,40.68
2024-01-11T11:16:12.323Z,40.75
2024-01-11T11:18:41.742Z,38.57
2024-01-11T11:21:13.193Z,38.39
2024-01-11T11:23:42.966Z,39.37
2024-01-11T11:26:17.868Z,38.96
2024-01-11T11:28:50.901Z,43.73
2024-01-11T11:31:38.622Z,45.77
2024-01-11T11:34:08.173Z,46.13
2024-01-11T11:36:37.568Z,46.32
2024-01-11T11:39:07.406Z,43.78
2024-01-11T11:41:40.218Z,45.52
2024-01-11T11:44:15.293Z,47.43
2024-01-11T11:46:45.205Z,45.05
2024-01-11T11:49:15.567Z,45.90
2024-01-11T11:51:45.933Z,44.79
2024-01-11T11:54:16.649Z,45.00
2024-01-11T11:56:46.757Z,45.46
2024-01-11T11:59:17.526Z,45.06
2024-01-11T12:01:47.583Z,47.53
2024-01-11T12:04:18.040Z,45.78
2024-01-11T12:06:47.849Z,45.71
2024-01-11T12:09:22.599Z,43.45
2024-01-11T12:11:58.458Z,42.36
2024-01-11T12:14:38.973Z,42.01
2024-01-11T12:17:09.030Z,41.28
2024-01-11T12:19:39.788Z,43.24
2024-01-11T12:22:09.669Z,42.28
2024-01-11T12:24:39.172Z,42.92
2024-01-11T12:27:08.564Z,42.58
2024-01-11T12:29:48.658Z,43.33
2024-01-11T12:32:25.967Z,43.71
2024-01-11T12:34:55.814Z,43.96
2024-01-11T12:37:25.258Z,42.69
2024-01-11T12:40:00.634Z,44.01
2024-01-11T12:42:30.521Z,44.10
2024-01-11T12:45:02.062Z,42.88
2024-01-11T12:47:32.018Z,41.57
2024-01-11T12:50:01.824Z,43.12
2024-01-11T12:52:31.782Z,44.32
2024-01-11T12:55:01.405Z,45.85
2024-01-11T12:57:31.101Z,44.37
2024-01-11T13:00:14.744Z,44.45
2024-01-11T13:02:46.316Z,44.73
2024-01-11T13:05:17.359Z,44.78
2024-01-11T13:07:47.889Z,43.66
2024-01-11T13:10:18.323Z,43.82
2024-01-11T13:12:51.509Z,43.26
2024-01-11T13:15:28.671Z,44.44
2024-01-11T13:17:58.761Z,44.72
2024-01-11T13:20:29.790Z,45.83
2024-01-11T13:23:15.588Z,46.25
2024-01-11T13:25:46.320Z,46.68
2024-01-11T13:28:16.842Z,47.71
2024-01-11T13:30:50.449Z,47.72
2024-01-11T13:33:20.797Z,45.27
2024-01-11T13:35:52.945Z,45.77
2024-01-11T13:38:25.150Z,46.86
2024-01-11T13:40:55.221Z,46.55
2024-01-11T13:43:25.143Z,47.48
2024-01-11T13:45:57.019Z,47.94
2024-01-11T13:48:26.954Z,47.39
2024-01-11T13:50:57.244Z,47.90
2024-01-11T13:53:26.988Z,47.28
2024-01-11T13:55:56.783Z,47.57
2024-01-11T13:58:26.225Z,45.92
2024-01-11T14:00:58.566Z,47.34
2024-01-11T14:03:28.036Z,47.14
2024-01-11T14:05:57.589Z,46.79
2024-01-11T14:08:27.851Z,47.36
2024-01-11T14:10:57.623Z,46.93
2024-01-11T14:13:26.984Z,48.95
2024-01-11T14:15:58.642Z,48.97
2024-01-11T14:18:28.660Z,48.44
2024-01-11T14:20:58.334Z,49.36
2024-01-11T14:23:27.905Z,50.23
2024-01-11T14:25:58.202Z,51.08
2024-01-11T14:28:27.915Z,49.60
2024-01-11T14:30:59.778Z,50.14
2024-01-11T14:33:30.334Z,49.33
2024-01-11T14:35:59.922Z,48.93
2024-01-11T14:38:29.522Z,48.83
2024-01-11T14:40:59.314Z,47.84
2024-01-11T14:43:29.126Z,49.14
2024-01-11T14:45:59.968Z,49.73
2024-01-11T14:48:32.620Z,51.60
2024-01-11T14:51:02.306Z,53.10
2024-01-11T14:53:31.684Z,51.43
2024-01-11T14:56:00.999Z,51.26
2024-01-11T14:58:30.243Z,49.52
2024-01-11T15:01:01.166Z,48.45
2024-01-11T15:03:30.497Z,48.33
2024-01-11T15:05:59.868Z,47.38
2024-01-11T15:08:29.622Z,47.74
2024-01-11T15:10:58.883Z,49.90
2024-01-11T15:13:30.061Z,50.86
2024-01-11T15:16:01.017Z,51.51
2024-01-11T15:18:30.609Z,51.79
2024-01-11T15:20:59.979Z,52.50
2024-01-11T15:23:30.908Z,53.26
2024-01-11T15:26:00.940Z,54.35
2024-01-11T15:28:30.375Z,55.49
2024-01-11T15:31:01.281Z,55.98
2024-01-11T15:33:30.574Z,55.96
2024-01-11T15:36:00.708Z,56.21
2024-01-11T15:38:30.213Z,56.30
2024-01-11T15:40:59.845Z,56.38
2024-01-11T15:43:30.101Z,57.95
2024-01-11T15:46:01.258Z,59.15
2024-01-11T15:48:31.039Z,59.34
2024-01-11T15:51:02.143Z,59.87
2024-01-11T15:53:32.050Z,60.84
2024-01-11T15:56:02.194Z,61.03
2024-01-11T15:58:31.555Z,60.16
2024-01-11T16:01:02.744Z,61.14
2024-01-11T16:03:32.360Z,61.57
2024-01-11T16:06:02.319Z,63.89
2024-01-11T16:08:32.239Z,64.33
2024-01-11T16:11:01.965Z,65.24
2024-01-11T16:13:31.290Z,83.47
2024-01-11T16:16:02.486Z,68.21
2024-01-11T16:18:36.955Z,69.33
2024-01-11T16:21:07.088Z,72.79
2024-01-11T16:23:37.679Z,71.22
2024-01-11T16:26:08.842Z,70.25
2024-01-11T16:28:38.720Z,70.52
2024-01-11T16:31:09.924Z,72.69
2024-01-11T16:33:40.105Z,73.46
2024-01-11T16:36:10.258Z,73.26
2024-01-11T16:38:40.383Z,75.85
2024-01-11T16:41:11.525Z,74.35
2024-01-11T16:43:41.498Z,72.19
2024-01-11T16:46:22.168Z,71.08
2024-01-11T16:48:52.614Z,72.76
2024-01-11T16:51:22.041Z,76.66
2024-01-11T16:53:51.676Z,74.66
2024-01-11T16:56:21.245Z,74.61
2024-01-11T16:58:50.936Z,74.17
2024-01-11T17:01:22.075Z,76.72
2024-01-11T17:03:51.571Z,75.83
2024-01-11T17:06:21.288Z,75.08
2024-01-11T17:08:51.313Z,77.76
2024-01-11T17:11:21.137Z,79.22
2024-01-11T17:13:50.844Z,78.51
2024-01-11T17:16:22.378Z,80.71
2024-01-11T17:18:51.724Z,82.02
2024-01-11T17:21:21.317Z,83.31
2024-01-11T17:23:51.019Z,84.95
2024-01-11T17:26:20.547Z,86.37
2024-01-11T17:28:50.257Z,88.40
2024-01-11T17:31:19.517Z,84.55
2024-01-11T17:33:50.594Z,83.98
2024-01-11T17:36:20.276Z,82.82
2024-01-11T17:38:49.848Z,83.02
2024-01-11T17:41:19.638Z,87.52
2024-01-11T17:43:49.937Z,84.68
2024-01-11T17:46:27.956Z,87.18
2024-01-11T17:49:00.129Z,85.94
2024-01-11T17:51:30.436Z,88.70
2024-01-11T17:53:59.699Z,86.27
2024-01-11T17:56:29.502Z,85.08
2024-01-11T17:59:06.579Z,83.31
2024-01-11T18:01:36.265Z,87.06
2024-01-11T18:04:10.362Z,90.82
2024-01-11T18:06:41.282Z,89.52
2024-01-11T18:09:10.817Z,86.74
2024-01-11T18:11:40.332Z,84.81
2024-01-11T18:14:10.124Z,84.58
2024-01-11T18:16:39.701Z,83.70
2024-01-11T18:19:14.985Z,85.20
2024-01-11T18:21:45.044Z,86.26
2024-01-11T18:24:15.495Z,85.24
2024-01-11T18:26:45.020Z,86.33
2024-01-11T18:29:14.900Z,87.75
2024-01-11T18:31:44.570Z,85.28
2024-01-11T18:34:15.827Z,87.32
2024-01-11T18:36:47.119Z,87.80
2024-01-11T18:39:17.116Z,88.18
2024-01-11T18:41:47.140Z,86.75
2024-01-11T18:44:17.019Z,86.92
2024-01-11T18:46:46.386Z,87.01
2024-01-11T18:49:18.141Z,87.63
2024-01-11T18:51:47.988Z,87.59
2024-01-11T18:54:17.563Z,89.86
2024-01-11T18:56:47.821Z,88.11
2024-01-11T18:59:18.265Z,85.22
2024-01-11T19:01:49.808Z,85.15
2024-01-11T19:04:21.351Z,84.59
2024-01-11T19:06:51.595Z,88.31
2024-01-11T19:09:20.992Z,88.49
2024-01-11T19:11:51.811Z,88.32
2024-01-11T19:14:21.364Z,89.71
2024-01-11T19:16:50.459Z,90.25
2024-01-11T19:19:22.642Z,95.39
2024-01-11T19:21:52.465Z,98.03
2024-01-11T19:24:22.177Z,97.55
2024-01-11T19:26:52.319Z,94.56
2024-01-11T19:29:25.671Z,100.00
2024-01-11T19:31:55.349Z,99.58
2024-01-11T19:34:26.127Z,97.61
2024-01-11T19:36:55.474Z,96.96
2024-01-11T19:39:24.879Z,93.09
2024-01-11T19:41:54.832Z,94.51
2024-01-11T19:44:28.491Z,99.87
2024-01-11T19:46:57.891Z,98.23
2024-01-11T19:49:28.904Z,100.00
2024-01-11T19:51:58.115Z,97.72
2024-01-11T19:54:28.020Z,95.70
2024-01-11T19:56:57.288Z,93.59
2024-01-11T19:59:29.277Z,94.64
2024-01-11T20:01:59.286Z,93.30
2024-01-11T20:04:33.551Z,100.00
2024-01-11T20:07:03.766Z,93.64
2024-01-11T20:09:33.647Z,93.71
2024-01-11T20:12:03.716Z,96.11
2024-01-11T20:14:33.656Z,98.76
2024-01-11T20:17:09.469Z,100.00
2024-01-11T20:19:40.766Z,100.00
2024-01-11T20:22:10.819Z,100.00
2024-01-11T20:24:40.335Z,100.00
2024-01-11T20:27:10.369Z,100.00
2024-01-11T20:29:40.071Z,100.00
2024-01-11T20:32:09.481Z,100.00
2024-01-11T20:34:41.114Z,100.00
2024-01-11T20:37:10.623Z,100.00
2024-01-11T20:39:42.523Z,100.00
2024-01-11T20:42:12.049Z,99.41
2024-01-11T20:44:41.473Z,95.78
2024-01-11T20:47:10.751Z,97.28
2024-01-11T20:49:41.993Z,97.05
2024-01-11T20:52:11.312Z,98.28
2024-01-11T20:54:40.539Z,96.75
2024-01-11T20:57:11.505Z,96.23
2024-01-11T20:59:42.034Z,96.49
2024-01-11T21:02:11.652Z,95.75
2024-01-11T21:04:42.761Z,97.56
2024-01-11T21:07:12.236Z,98.26
2024-01-11T21:09:42.003Z,96.34
2024-01-11T21:12:12.016Z,100.00
2024-01-11T21:14:41.752Z,100.00
2024-01-11T21:17:11.229Z,100.00
2024-01-11T21:19:42.454Z,100.00
2024-01-11T21:22:12.178Z,87.75
2024-01-11T21:24:42.012Z,87.53
2024-01-11T21:27:11.553Z,89.87
2024-01-11T21:29:41.339Z,91.86
2024-01-11T21:32:11.141Z,91.88
2024-01-11T21:34:42.246Z,94.27
2024-01-11T21:37:11.746Z,96.26
2024-01-11T21:39:41.230Z,99.40
2024-01-11T21:42:10.671Z,99.48
2024-01-11T21:44:40.190Z,100.00
2024-01-11T21:47:09.321Z,100.00
2024-01-11T21:49:38.493Z,98.29
2024-01-11T21:52:09.625Z,99.93
2024-01-11T21:54:38.829Z,100.00
2024-01-11T21:57:08.675Z,100.00
2024-01-11T21:59:38.268Z,100.00
2024-01-11T22:02:08.411Z,100.00
2024-01-11T22:04:37.917Z,100.00
2024-01-11T22:07:11.441Z,100.00
2024-01-11T22:09:43.938Z,100.00
2024-01-11T22:12:13.384Z,100.00
2024-01-11T22:14:42.860Z,100.00
2024-01-11T22:17:12.154Z,100.00
2024-01-11T22:19:41.366Z,100.00
2024-01-11T22:22:12.475Z,100.00
2024-01-11T22:24:41.830Z,99.44
2024-01-11T22:27:12.604Z,100.00
2024-01-11T22:29:42.245Z,100.00
2024-01-11T22:32:11.496Z,100.00
2024-01-11T22:34:40.976Z,100.00
2024-01-11T22:37:12.082Z,99.23
2024-01-11T22:39:41.773Z,99.47
2024-01-11T22:42:11.129Z,99.75
2024-01-11T22:44:40.514Z,99.91
2024-01-11T22:47:09.863Z,100.00
2024-01-11T22:49:39.389Z,100.00
2024-01-11T22:52:09.259Z,100.00
2024-01-11T22:54:41.950Z,100.00
2024-01-11T22:57:11.315Z,100.00
2024-01-11T22:59:40.693Z,100.00
2024-01-11T23:02:09.973Z,96.87
2024-01-11T23:04:39.500Z,100.00
2024-01-11T23:07:08.628Z,100.00
2024-01-11T23:09:39.573Z,99.21
2024-01-11T23:12:09.290Z,99.96
2024-01-11T23:14:38.351Z,100.00
2024-01-11T23:17:08.814Z,100.00
2024-01-11T23:19:38.196Z,100.00
2024-01-11T23:22:07.287Z,98.91
2024-01-11T23:24:36.525Z,98.67
2024-01-11T23:27:09.721Z,97.87
2024-01-11T23:29:39.478Z,98.69
2024-01-11T23:32:08.706Z,97.96
2024-01-11T23:34:38.141Z,99.45
2024-01-11T23:37:07.631Z,100.00
2024-01-11T23:39:36.720Z,100.00
2024-01-11T23:42:09.449Z,100.00
2024-01-11T23:44:38.829Z,100.00
2024-01-11T23:47:08.407Z,100.00
2024-01-11T23:49:37.983Z,100.00
2024-01-11T23:52:08.107Z,100.00
2024-01-11T23:54:37.302Z,99.62
2024-01-11T23:57:08.426Z,97.22
2024-01-11T23:59:37.844Z,97.09
